CYRA

Rae Lakes Airport

Gamètì, Northwest Territories, Canada
METAR CYRA 201700Z 20006KT 170V240 15SM BKN012 BKN090 00/M02 A2931 RMK SC5AC2 SLP942
Observed Flight Rules
Oct-20 @ 17:00 UTC (an hour ago) Marginal Visual Flight Rules
Wind Visibility Clouds
200° at 6 knots 15 miles
  • Broken at 1,200' AGL
  • Broken at 9,000' AGL
Temperatures Readings
Current 0°C / 32°F
Dewpoint -2°C / 28°F
Humidity 87%
Altimeter 29.31" Hg
Pressure 994.2 hPa
Elevation 213
METAR CYRA 201700Z 20006KT 170V240 15SM BKN012 BKN090 00/M02 A2931 RMK SC5AC2 SLP942
Observed Flight Rules
Oct-20 @ 17:00 UTC
(an hour ago)
MVFR
Wind Visibility
200° at 6 knots 15 miles
Clouds
  • Broken at 1,200' AGL
  • Broken at 9,000' AGL
Temperature Dewpoint
0°C / 32°F -2°C / 28°F
Humidity Altimeter Pressure
87% 29.31" Hg 994.2 hPa